sensor_id;sensor_type;location;lat;lon;timestamp;P1;durP1;ratioP1;P2;durP2;ratioP2
79403;SDS011;68858;48.642;9.142;2023-11-21T00:01:44;7.67;;;2.60;;
79403;SDS011;68858;48.642;9.142;2023-11-21T00:04:09;5.37;;;2.40;;
79403;SDS011;68858;48.642;9.142;2023-11-21T00:06:35;6.03;;;2.80;;
79403;SDS011;68858;48.642;9.142;2023-11-21T00:09:00;6.80;;;2.97;;
79403;SDS011;68858;48.642;9.142;2023-11-21T00:11:26;6.80;;;2.93;;
79403;SDS011;68858;48.642;9.142;2023-11-21T00:13:51;3.83;;;2.27;;
79403;SDS011;68858;48.642;9.142;2023-11-21T00:16:17;8.03;;;2.93;;
79403;SDS011;68858;48.642;9.142;2023-11-21T00:18:42;5.43;;;2.40;;
79403;SDS011;68858;48.642;9.142;2023-11-21T00:21:08;4.33;;;2.27;;
79403;SDS011;68858;48.642;9.142;2023-11-21T00:23:34;3.90;;;2.27;;
79403;SDS011;68858;48.642;9.142;2023-11-21T00:25:59;5.07;;;2.50;;
79403;SDS011;68858;48.642;9.142;2023-11-21T00:28:25;6.27;;;2.63;;
79403;SDS011;68858;48.642;9.142;2023-11-21T00:30:51;3.63;;;2.20;;
79403;SDS011;68858;48.642;9.142;2023-11-21T00:33:16;5.27;;;2.67;;
79403;SDS011;68858;48.642;9.142;2023-11-21T00:35:43;3.63;;;2.40;;
79403;SDS011;68858;48.642;9.142;2023-11-21T00:38:08;4.33;;;2.70;;
79403;SDS011;68858;48.642;9.142;2023-11-21T00:40:34;5.17;;;2.77;;
79403;SDS011;68858;48.642;9.142;2023-11-21T00:43:00;3.57;;;2.50;;
79403;SDS011;68858;48.642;9.142;2023-11-21T00:45:26;5.77;;;2.30;;
79403;SDS011;68858;48.642;9.142;2023-11-21T00:47:52;4.63;;;2.43;;
79403;SDS011;68858;48.642;9.142;2023-11-21T00:50:18;6.27;;;2.57;;
79403;SDS011;68858;48.642;9.142;2023-11-21T00:52:44;5.37;;;2.50;;
79403;SDS011;68858;48.642;9.142;2023-11-21T00:55:10;3.20;;;2.30;;
79403;SDS011;68858;48.642;9.142;2023-11-21T00:57:36;4.43;;;2.03;;
79403;SDS011;68858;48.642;9.142;2023-11-21T01:00:02;4.57;;;2.10;;
79403;SDS011;68858;48.642;9.142;2023-11-21T01:02:32;5.10;;;2.30;;
79403;SDS011;68858;48.642;9.142;2023-11-21T01:04:58;5.57;;;2.00;;
79403;SDS011;68858;48.642;9.142;2023-11-21T01:07:23;4.23;;;2.00;;
79403;SDS011;68858;48.642;9.142;2023-11-21T01:09:49;3.77;;;1.77;;
79403;SDS011;68858;48.642;9.142;2023-11-21T01:12:14;3.33;;;1.80;;
79403;SDS011;68858;48.642;9.142;2023-11-21T01:14:41;3.47;;;1.70;;
79403;SDS011;68858;48.642;9.142;2023-11-21T01:17:06;4.97;;;1.90;;
79403;SDS011;68858;48.642;9.142;2023-11-21T01:19:32;6.93;;;2.10;;
79403;SDS011;68858;48.642;9.142;2023-11-21T01:21:57;3.97;;;1.83;;
79403;SDS011;68858;48.642;9.142;2023-11-21T01:24:23;3.77;;;1.80;;
79403;SDS011;68858;48.642;9.142;2023-11-21T01:26:48;2.40;;;1.43;;
79403;SDS011;68858;48.642;9.142;2023-11-21T01:29:13;3.67;;;1.97;;
79403;SDS011;68858;48.642;9.142;2023-11-21T01:31:40;3.87;;;1.90;;
79403;SDS011;68858;48.642;9.142;2023-11-21T01:34:05;4.17;;;1.90;;
79403;SDS011;68858;48.642;9.142;2023-11-21T01:36:31;4.30;;;1.50;;
79403;SDS011;68858;48.642;9.142;2023-11-21T01:39:00;2.30;;;1.40;;
79403;SDS011;68858;48.642;9.142;2023-11-21T01:41:26;2.77;;;1.67;;
79403;SDS011;68858;48.642;9.142;2023-11-21T01:43:52;4.57;;;1.60;;
79403;SDS011;68858;48.642;9.142;2023-11-21T01:46:19;3.47;;;1.70;;
79403;SDS011;68858;48.642;9.142;2023-11-21T01:48:45;1.83;;;1.53;;
79403;SDS011;68858;48.642;9.142;2023-11-21T01:51:11;2.53;;;1.43;;
79403;SDS011;68858;48.642;9.142;2023-11-21T01:53:36;4.33;;;1.63;;
79403;SDS011;68858;48.642;9.142;2023-11-21T01:56:02;2.90;;;1.40;;
79403;SDS011;68858;48.642;9.142;2023-11-21T01:58:28;2.63;;;1.50;;
79403;SDS011;68858;48.642;9.142;2023-11-21T02:00:53;4.40;;;1.70;;
79403;SDS011;68858;48.642;9.142;2023-11-21T02:03:19;3.47;;;1.37;;
79403;SDS011;68858;48.642;9.142;2023-11-21T02:05:47;3.70;;;1.60;;
79403;SDS011;68858;48.642;9.142;2023-11-21T02:08:12;3.40;;;1.60;;
79403;SDS011;68858;48.642;9.142;2023-11-21T02:10:37;3.17;;;1.50;;
79403;SDS011;68858;48.642;9.142;2023-11-21T02:13:03;4.60;;;1.37;;
79403;SDS011;68858;48.642;9.142;2023-11-21T02:15:28;1.93;;;1.10;;
79403;SDS011;68858;48.642;9.142;2023-11-21T02:17:54;2.97;;;1.30;;
79403;SDS011;68858;48.642;9.142;2023-11-21T02:20:20;2.73;;;1.47;;
79403;SDS011;68858;48.642;9.142;2023-11-21T02:22:55;3.63;;;1.23;;
79403;SDS011;68858;48.642;9.142;2023-11-21T02:25:31;2.20;;;1.23;;
79403;SDS011;68858;48.642;9.142;2023-11-21T02:27:58;2.57;;;1.27;;
79403;SDS011;68858;48.642;9.142;2023-11-21T02:30:24;2.83;;;1.40;;
79403;SDS011;68858;48.642;9.142;2023-11-21T02:32:59;1.43;;;1.10;;
79403;SDS011;68858;48.642;9.142;2023-11-21T02:35:25;3.53;;;1.30;;
79403;SDS011;68858;48.642;9.142;2023-11-21T02:37:51;4.87;;;1.40;;
79403;SDS011;68858;48.642;9.142;2023-11-21T02:40:17;2.97;;;1.50;;
79403;SDS011;68858;48.642;9.142;2023-11-21T02:42:44;3.33;;;1.50;;
79403;SDS011;68858;48.642;9.142;2023-11-21T02:45:09;3.13;;;1.40;;
79403;SDS011;68858;48.642;9.142;2023-11-21T02:47:38;2.13;;;1.20;;
79403;SDS011;68858;48.642;9.142;2023-11-21T02:50:04;3.77;;;1.30;;
79403;SDS011;68858;48.642;9.142;2023-11-21T02:52:31;2.37;;;1.10;;
79403;SDS011;68858;48.642;9.142;2023-11-21T02:54:58;1.80;;;1.07;;
79403;SDS011;68858;48.642;9.142;2023-11-21T02:57:23;1.73;;;1.10;;
79403;SDS011;68858;48.642;9.142;2023-11-21T02:59:49;1.30;;;0.83;;
79403;SDS011;68858;48.642;9.142;2023-11-21T03:02:15;2.37;;;1.20;;
79403;SDS011;68858;48.642;9.142;2023-11-21T03:04:40;2.73;;;1.10;;
79403;SDS011;68858;48.642;9.142;2023-11-21T03:07:08;2.27;;;1.30;;
79403;SDS011;68858;48.642;9.142;2023-11-21T03:09:34;2.87;;;1.10;;
79403;SDS011;68858;48.642;9.142;2023-11-21T03:12:00;2.60;;;1.20;;
79403;SDS011;68858;48.642;9.142;2023-11-21T03:14:25;1.77;;;1.10;;
79403;SDS011;68858;48.642;9.142;2023-11-21T03:16:51;0.70;;;0.70;;
79403;SDS011;68858;48.642;9.142;2023-11-21T03:19:16;2.77;;;1.03;;
79403;SDS011;68858;48.642;9.142;2023-11-21T03:21:42;1.73;;;1.00;;
79403;SDS011;68858;48.642;9.142;2023-11-21T03:24:07;2.00;;;1.03;;
79403;SDS011;68858;48.642;9.142;2023-11-21T03:26:33;3.07;;;1.40;;
79403;SDS011;68858;48.642;9.142;2023-11-21T03:28:58;1.13;;;0.80;;
79403;SDS011;68858;48.642;9.142;2023-11-21T03:31:24;1.93;;;1.10;;
79403;SDS011;68858;48.642;9.142;2023-11-21T03:33:49;1.90;;;0.87;;
79403;SDS011;68858;48.642;9.142;2023-11-21T03:36:14;1.10;;;0.87;;
79403;SDS011;68858;48.642;9.142;2023-11-21T03:38:40;3.07;;;0.97;;
79403;SDS011;68858;48.642;9.142;2023-11-21T03:41:06;2.73;;;0.80;;
79403;SDS011;68858;48.642;9.142;2023-11-21T03:43:32;1.40;;;1.10;;
79403;SDS011;68858;48.642;9.142;2023-11-21T03:45:57;1.13;;;0.70;;
79403;SDS011;68858;48.642;9.142;2023-11-21T03:48:22;2.07;;;1.03;;
79403;SDS011;68858;48.642;9.142;2023-11-21T03:50:48;1.97;;;0.90;;
79403;SDS011;68858;48.642;9.142;2023-11-21T03:53:13;2.30;;;1.00;;
79403;SDS011;68858;48.642;9.142;2023-11-21T03:55:39;1.47;;;0.90;;
79403;SDS011;68858;48.642;9.142;2023-11-21T03:58:05;0.80;;;0.70;;
79403;SDS011;68858;48.642;9.142;2023-11-21T04:00:30;0.87;;;0.77;;
79403;SDS011;68858;48.642;9.142;2023-11-21T04:02:56;3.03;;;0.90;;
79403;SDS011;68858;48.642;9.142;2023-11-21T04:05:21;0.67;;;0.63;;
79403;SDS011;68858;48.642;9.142;2023-11-21T04:07:48;2.87;;;1.90;;
79403;SDS011;68858;48.642;9.142;2023-11-21T04:10:16;1.50;;;1.13;;
79403;SDS011;68858;48.642;9.142;2023-11-21T04:12:42;1.87;;;0.90;;
79403;SDS011;68858;48.642;9.142;2023-11-21T04:15:08;1.73;;;0.70;;
79403;SDS011;68858;48.642;9.142;2023-11-21T04:17:34;1.53;;;0.90;;
79403;SDS011;68858;48.642;9.142;2023-11-21T04:20:00;1.47;;;0.77;;
79403;SDS011;68858;48.642;9.142;2023-11-21T04:22:25;0.97;;;0.70;;
79403;SDS011;68858;48.642;9.142;2023-11-21T04:24:51;1.70;;;0.63;;
79403;SDS011;68858;48.642;9.142;2023-11-21T04:27:16;1.67;;;0.80;;
79403;SDS011;68858;48.642;9.142;2023-11-21T04:29:45;0.50;;;0.50;;
79403;SDS011;68858;48.642;9.142;2023-11-21T04:32:10;0.93;;;0.63;;
79403;SDS011;68858;48.642;9.142;2023-11-21T04:34:36;0.90;;;0.60;;
79403;SDS011;68858;48.642;9.142;2023-11-21T04:37:01;0.70;;;0.70;;
79403;SDS011;68858;48.642;9.142;2023-11-21T04:39:28;1.20;;;0.77;;
79403;SDS011;68858;48.642;9.142;2023-11-21T04:41:53;1.60;;;0.53;;
79403;SDS011;68858;48.642;9.142;2023-11-21T04:44:18;0.40;;;0.40;;
79403;SDS011;68858;48.642;9.142;2023-11-21T04:46:44;0.40;;;0.40;;
79403;SDS011;68858;48.642;9.142;2023-11-21T04:49:09;0.47;;;0.47;;
79403;SDS011;68858;48.642;9.142;2023-11-21T04:51:36;1.30;;;0.50;;
79403;SDS011;68858;48.642;9.142;2023-11-21T04:54:01;1.13;;;0.50;;
79403;SDS011;68858;48.642;9.142;2023-11-21T04:56:27;0.70;;;0.60;;
79403;SDS011;68858;48.642;9.142;2023-11-21T04:58:52;1.30;;;0.80;;
79403;SDS011;68858;48.642;9.142;2023-11-21T05:01:18;1.30;;;0.83;;
79403;SDS011;68858;48.642;9.142;2023-11-21T05:03:44;2.73;;;1.10;;
79403;SDS011;68858;48.642;9.142;2023-11-21T05:06:10;1.53;;;0.70;;
79403;SDS011;68858;48.642;9.142;2023-11-21T05:08:35;1.00;;;0.70;;
79403;SDS011;68858;48.642;9.142;2023-11-21T05:11:03;0.80;;;0.70;;
79403;SDS011;68858;48.642;9.142;2023-11-21T05:13:28;1.33;;;0.83;;
79403;SDS011;68858;48.642;9.142;2023-11-21T05:15:56;1.13;;;0.77;;
79403;SDS011;68858;48.642;9.142;2023-11-21T05:18:22;1.13;;;1.00;;
79403;SDS011;68858;48.642;9.142;2023-11-21T05:20:48;2.43;;;1.40;;
79403;SDS011;68858;48.642;9.142;2023-11-21T05:23:13;3.80;;;1.20;;
79403;SDS011;68858;48.642;9.142;2023-11-21T05:25:39;1.57;;;0.80;;
79403;SDS011;68858;48.642;9.142;2023-11-21T05:28:06;1.00;;;0.80;;
79403;SDS011;68858;48.642;9.142;2023-11-21T05:30:31;2.03;;;1.00;;
79403;SDS011;68858;48.642;9.142;2023-11-21T05:32:57;1.63;;;1.13;;
79403;SDS011;68858;48.642;9.142;2023-11-21T05:35:22;1.93;;;1.20;;
79403;SDS011;68858;48.642;9.142;2023-11-21T05:37:47;1.60;;;1.13;;
79403;SDS011;68858;48.642;9.142;2023-11-21T05:40:14;1.87;;;1.10;;
79403;SDS011;68858;48.642;9.142;2023-11-21T05:42:40;1.07;;;0.97;;
79403;SDS011;68858;48.642;9.142;2023-11-21T05:45:07;2.70;;;1.07;;
79403;SDS011;68858;48.642;9.142;2023-11-21T05:47:38;1.70;;;1.10;;
79403;SDS011;68858;48.642;9.142;2023-11-21T05:50:05;1.40;;;0.93;;
79403;SDS011;68858;48.642;9.142;2023-11-21T05:52:36;1.97;;;1.00;;
79403;SDS011;68858;48.642;9.142;2023-11-21T05:55:02;1.10;;;0.83;;
79403;SDS011;68858;48.642;9.142;2023-11-21T05:57:30;1.43;;;0.87;;
79403;SDS011;68858;48.642;9.142;2023-11-21T05:59:57;2.83;;;1.00;;
79403;SDS011;68858;48.642;9.142;2023-11-21T06:02:22;2.30;;;0.90;;
79403;SDS011;68858;48.642;9.142;2023-11-21T06:04:48;3.87;;;1.10;;
79403;SDS011;68858;48.642;9.142;2023-11-21T06:07:14;1.87;;;1.17;;
79403;SDS011;68858;48.642;9.142;2023-11-21T06:09:40;1.03;;;0.90;;
79403;SDS011;68858;48.642;9.142;2023-11-21T06:12:05;1.00;;;0.90;;
79403;SDS011;68858;48.642;9.142;2023-11-21T06:14:32;1.03;;;0.90;;
79403;SDS011;68858;48.642;9.142;2023-11-21T06:17:00;1.20;;;1.10;;
79403;SDS011;68858;48.642;9.142;2023-11-21T06:19:25;1.40;;;1.00;;
79403;SDS011;68858;48.642;9.142;2023-11-21T06:21:51;1.77;;;1.00;;
79403;SDS011;68858;48.642;9.142;2023-11-21T06:24:16;2.83;;;0.90;;
79403;SDS011;68858;48.642;9.142;2023-11-21T06:26:44;0.70;;;0.70;;
79403;SDS011;68858;48.642;9.142;2023-11-21T06:29:10;2.30;;;0.97;;
79403;SDS011;68858;48.642;9.142;2023-11-21T06:31:36;2.23;;;1.10;;
79403;SDS011;68858;48.642;9.142;2023-11-21T06:34:01;1.20;;;0.90;;
79403;SDS011;68858;48.642;9.142;2023-11-21T06:36:28;1.23;;;1.00;;
79403;SDS011;68858;48.642;9.142;2023-11-21T06:38:53;3.10;;;1.00;;
79403;SDS011;68858;48.642;9.142;2023-11-21T06:41:19;0.80;;;0.80;;
79403;SDS011;68858;48.642;9.142;2023-11-21T06:43:44;1.03;;;0.87;;
79403;SDS011;68858;48.642;9.142;2023-11-21T06:46:11;1.10;;;1.00;;
79403;SDS011;68858;48.642;9.142;2023-11-21T06:48:41;1.97;;;1.10;;
79403;SDS011;68858;48.642;9.142;2023-11-21T06:51:07;1.30;;;1.20;;
79403;SDS011;68858;48.642;9.142;2023-11-21T06:53:33;1.80;;;1.00;;
79403;SDS011;68858;48.642;9.142;2023-11-21T06:55:59;2.70;;;1.10;;
79403;SDS011;68858;48.642;9.142;2023-11-21T06:58:24;2.73;;;1.53;;
79403;SDS011;68858;48.642;9.142;2023-11-21T07:00:50;1.77;;;1.30;;
79403;SDS011;68858;48.642;9.142;2023-11-21T07:03:15;1.90;;;1.10;;
79403;SDS011;68858;48.642;9.142;2023-11-21T07:05:40;2.00;;;1.00;;
79403;SDS011;68858;48.642;9.142;2023-11-21T07:08:06;1.03;;;0.93;;
79403;SDS011;68858;48.642;9.142;2023-11-21T07:10:32;0.90;;;0.90;;
79403;SDS011;68858;48.642;9.142;2023-11-21T07:12:58;1.57;;;0.90;;
79403;SDS011;68858;48.642;9.142;2023-11-21T07:15:23;1.20;;;1.10;;
79403;SDS011;68858;48.642;9.142;2023-11-21T07:17:51;1.23;;;1.07;;
79403;SDS011;68858;48.642;9.142;2023-11-21T07:20:16;1.43;;;0.80;;
79403;SDS011;68858;48.642;9.142;2023-11-21T07:22:51;2.03;;;1.47;;
79403;SDS011;68858;48.642;9.142;2023-11-21T07:25:17;2.20;;;1.30;;
79403;SDS011;68858;48.642;9.142;2023-11-21T07:27:43;1.10;;;1.00;;
79403;SDS011;68858;48.642;9.142;2023-11-21T07:30:09;1.10;;;0.80;;
79403;SDS011;68858;48.642;9.142;2023-11-21T07:32:36;1.10;;;0.80;;
79403;SDS011;68858;48.642;9.142;2023-11-21T07:35:02;1.60;;;1.27;;
79403;SDS011;68858;48.642;9.142;2023-11-21T07:37:27;0.73;;;0.67;;
79403;SDS011;68858;48.642;9.142;2023-11-21T07:39:54;2.43;;;1.10;;
79403;SDS011;68858;48.642;9.142;2023-11-21T07:42:21;1.47;;;1.37;;
79403;SDS011;68858;48.642;9.142;2023-11-21T07:44:57;1.10;;;1.00;;
79403;SDS011;68858;48.642;9.142;2023-11-21T07:47:22;1.70;;;1.20;;
79403;SDS011;68858;48.642;9.142;2023-11-21T07:49:50;1.20;;;1.10;;
79403;SDS011;68858;48.642;9.142;2023-11-21T07:52:15;1.80;;;1.20;;
79403;SDS011;68858;48.642;9.142;2023-11-21T07:54:41;1.40;;;1.20;;
79403;SDS011;68858;48.642;9.142;2023-11-21T07:57:07;1.83;;;1.40;;
79403;SDS011;68858;48.642;9.142;2023-11-21T07:59:32;1.47;;;1.10;;
79403;SDS011;68858;48.642;9.142;2023-11-21T08:01:57;1.37;;;1.00;;
79403;SDS011;68858;48.642;9.142;2023-11-21T08:04:23;1.30;;;1.10;;
79403;SDS011;68858;48.642;9.142;2023-11-21T08:06:50;1.13;;;0.87;;
79403;SDS011;68858;48.642;9.142;2023-11-21T08:09:16;1.53;;;1.13;;
79403;SDS011;68858;48.642;9.142;2023-11-21T08:11:42;1.77;;;1.07;;
79403;SDS011;68858;48.642;9.142;2023-11-21T08:14:08;1.50;;;1.07;;
79403;SDS011;68858;48.642;9.142;2023-11-21T08:16:34;0.90;;;0.90;;
79403;SDS011;68858;48.642;9.142;2023-11-21T08:18:59;2.00;;;1.20;;
79403;SDS011;68858;48.642;9.142;2023-11-21T08:21:25;1.80;;;1.20;;
79403;SDS011;68858;48.642;9.142;2023-11-21T08:23:52;2.33;;;1.50;;
79403;SDS011;68858;48.642;9.142;2023-11-21T08:26:27;2.80;;;2.00;;
79403;SDS011;68858;48.642;9.142;2023-11-21T08:28:52;1.30;;;1.20;;
79403;SDS011;68858;48.642;9.142;2023-11-21T08:31:28;1.87;;;1.40;;
79403;SDS011;68858;48.642;9.142;2023-11-21T08:33:54;1.60;;;1.03;;
79403;SDS011;68858;48.642;9.142;2023-11-21T08:36:20;1.20;;;1.10;;
79403;SDS011;68858;48.642;9.142;2023-11-21T08:38:48;4.37;;;2.60;;
79403;SDS011;68858;48.642;9.142;2023-11-21T08:41:15;1.77;;;1.40;;
79403;SDS011;68858;48.642;9.142;2023-11-21T08:43:42;3.17;;;1.30;;
79403;SDS011;68858;48.642;9.142;2023-11-21T08:46:07;2.00;;;1.07;;
79403;SDS011;68858;48.642;9.142;2023-11-21T08:48:35;0.97;;;0.67;;
79403;SDS011;68858;48.642;9.142;2023-11-21T08:51:01;1.40;;;1.10;;
79403;SDS011;68858;48.642;9.142;2023-11-21T08:53:27;1.70;;;1.40;;
79403;SDS011;68858;48.642;9.142;2023-11-21T08:55:53;2.77;;;1.13;;
79403;SDS011;68858;48.642;9.142;2023-11-21T08:58:20;2.03;;;1.10;;
79403;SDS011;68858;48.642;9.142;2023-11-21T09:00:45;1.87;;;1.20;;
79403;SDS011;68858;48.642;9.142;2023-11-21T09:03:12;0.80;;;0.80;;
79403;SDS011;68858;48.642;9.142;2023-11-21T09:05:38;2.13;;;1.10;;
79403;SDS011;68858;48.642;9.142;2023-11-21T09:08:04;2.67;;;1.00;;
79403;SDS011;68858;48.642;9.142;2023-11-21T09:10:30;1.20;;;0.90;;
79403;SDS011;68858;48.642;9.142;2023-11-21T09:15:25;1.47;;;0.90;;
79403;SDS011;68858;48.642;9.142;2023-11-21T09:17:50;1.10;;;0.90;;
79403;SDS011;68858;48.642;9.142;2023-11-21T09:20:16;0.97;;;0.87;;
79403;SDS011;68858;48.642;9.142;2023-11-21T09:22:41;1.10;;;0.97;;
79403;SDS011;68858;48.642;9.142;2023-11-21T09:25:07;1.13;;;0.90;;
79403;SDS011;68858;48.642;9.142;2023-11-21T09:27:41;1.50;;;0.90;;
79403;SDS011;68858;48.642;9.142;2023-11-21T09:30:07;1.53;;;1.10;;
79403;SDS011;68858;48.642;9.142;2023-11-21T09:32:37;1.10;;;1.00;;
79403;SDS011;68858;48.642;9.142;2023-11-21T09:35:05;1.27;;;1.00;;
79403;SDS011;68858;48.642;9.142;2023-11-21T09:37:33;1.40;;;1.07;;
79403;SDS011;68858;48.642;9.142;2023-11-21T09:39:59;1.30;;;1.13;;
79403;SDS011;68858;48.642;9.142;2023-11-21T09:42:30;2.43;;;1.47;;
79403;SDS011;68858;48.642;9.142;2023-11-21T09:47:28;1.77;;;0.90;;
79403;SDS011;68858;48.642;9.142;2023-11-21T09:49:54;1.70;;;0.90;;
79403;SDS011;68858;48.642;9.142;2023-11-21T09:52:24;1.10;;;1.00;;
79403;SDS011;68858;48.642;9.142;2023-11-21T09:54:51;1.37;;;0.90;;
79403;SDS011;68858;48.642;9.142;2023-11-21T09:57:21;0.80;;;0.80;;
79403;SDS011;68858;48.642;9.142;2023-11-21T09:59:48;1.63;;;1.20;;
79403;SDS011;68858;48.642;9.142;2023-11-21T10:02:18;2.97;;;1.00;;
79403;SDS011;68858;48.642;9.142;2023-11-21T10:04:46;0.80;;;0.80;;
79403;SDS011;68858;48.642;9.142;2023-11-21T10:07:13;0.73;;;0.73;;
79403;SDS011;68858;48.642;9.142;2023-11-21T10:09:42;2.30;;;1.20;;
79403;SDS011;68858;48.642;9.142;2023-11-21T10:12:07;1.80;;;1.10;;
79403;SDS011;68858;48.642;9.142;2023-11-21T10:14:35;1.10;;;0.90;;
79403;SDS011;68858;48.642;9.142;2023-11-21T10:17:04;2.20;;;1.20;;
79403;SDS011;68858;48.642;9.142;2023-11-21T10:19:36;0.80;;;0.80;;
79403;SDS011;68858;48.642;9.142;2023-11-21T10:22:02;1.17;;;0.80;;
79403;SDS011;68858;48.642;9.142;2023-11-21T10:24:29;2.83;;;0.90;;
79403;SDS011;68858;48.642;9.142;2023-11-21T10:26:55;2.47;;;1.10;;
79403;SDS011;68858;48.642;9.142;2023-11-21T10:29:20;1.10;;;1.00;;
79403;SDS011;68858;48.642;9.142;2023-11-21T10:31:49;1.20;;;0.90;;
79403;SDS011;68858;48.642;9.142;2023-11-21T10:34:16;1.67;;;1.10;;
79403;SDS011;68858;48.642;9.142;2023-11-21T10:36:42;2.57;;;1.03;;
79403;SDS011;68858;48.642;9.142;2023-11-21T10:39:08;1.20;;;1.10;;
79403;SDS011;68858;48.642;9.142;2023-11-21T10:41:36;1.07;;;0.97;;
79403;SDS011;68858;48.642;9.142;2023-11-21T10:44:02;1.10;;;1.00;;
79403;SDS011;68858;48.642;9.142;2023-11-21T10:46:35;0.87;;;0.80;;
79403;SDS011;68858;48.642;9.142;2023-11-21T10:49:00;1.27;;;0.93;;
79403;SDS011;68858;48.642;9.142;2023-11-21T10:51:27;1.30;;;1.13;;
79403;SDS011;68858;48.642;9.142;2023-11-21T10:53:53;1.70;;;1.27;;
79403;SDS011;68858;48.642;9.142;2023-11-21T10:56:22;1.40;;;1.30;;
79403;SDS011;68858;48.642;9.142;2023-11-21T10:58:49;2.20;;;1.57;;
79403;SDS011;68858;48.642;9.142;2023-11-21T11:01:17;1.33;;;1.23;;
79403;SDS011;68858;48.642;9.142;2023-11-21T11:03:43;1.73;;;1.50;;
79403;SDS011;68858;48.642;9.142;2023-11-21T11:06:09;1.97;;;1.17;;
79403;SDS011;68858;48.642;9.142;2023-11-21T11:08:39;1.17;;;1.07;;
79403;SDS011;68858;48.642;9.142;2023-11-21T11:11:05;1.93;;;1.27;;
79403;SDS011;68858;48.642;9.142;2023-11-21T11:13:31;2.00;;;1.30;;
79403;SDS011;68858;48.642;9.142;2023-11-21T11:16:00;1.73;;;1.40;;
79403;SDS011;68858;48.642;9.142;2023-11-21T11:18:32;1.33;;;1.20;;
79403;SDS011;68858;48.642;9.142;2023-11-21T11:23:49;1.30;;;1.20;;
79403;SDS011;68858;48.642;9.142;2023-11-21T11:32:09;1.43;;;1.20;;
79403;SDS011;68858;48.642;9.142;2023-11-21T11:34:41;1.67;;;1.57;;
79403;SDS011;68858;48.642;9.142;2023-11-21T11:37:11;1.63;;;1.53;;
79403;SDS011;68858;48.642;9.142;2023-11-21T11:39:39;2.40;;;1.80;;
79403;SDS011;68858;48.642;9.142;2023-11-21T11:42:10;2.77;;;2.47;;
79403;SDS011;68858;48.642;9.142;2023-11-21T11:47:20;2.00;;;1.60;;
79403;SDS011;68858;48.642;9.142;2023-11-21T11:52:45;1.47;;;1.37;;
79403;SDS011;68858;48.642;9.142;2023-11-21T11:55:15;1.30;;;1.13;;
79403;SDS011;68858;48.642;9.142;2023-11-21T11:57:45;1.80;;;1.47;;
79403;SDS011;68858;48.642;9.142;2023-11-21T12:00:41;1.90;;;1.80;;
79403;SDS011;68858;48.642;9.142;2023-11-21T12:03:06;2.00;;;1.63;;
79403;SDS011;68858;48.642;9.142;2023-11-21T12:05:33;1.87;;;1.30;;
79403;SDS011;68858;48.642;9.142;2023-11-21T12:08:10;1.30;;;1.20;;
79403;SDS011;68858;48.642;9.142;2023-11-21T12:10:37;1.40;;;1.30;;
79403;SDS011;68858;48.642;9.142;2023-11-21T12:13:07;1.70;;;1.60;;
79403;SDS011;68858;48.642;9.142;2023-11-21T12:15:36;3.17;;;2.10;;
79403;SDS011;68858;48.642;9.142;2023-11-21T12:18:02;1.97;;;1.73;;
79403;SDS011;68858;48.642;9.142;2023-11-21T12:20:28;2.07;;;1.33;;
79403;SDS011;68858;48.642;9.142;2023-11-21T12:22:56;1.37;;;1.27;;
79403;SDS011;68858;48.642;9.142;2023-11-21T12:25:31;1.20;;;1.10;;
79403;SDS011;68858;48.642;9.142;2023-11-21T12:27:58;1.20;;;1.10;;
79403;SDS011;68858;48.642;9.142;2023-11-21T12:33:00;2.53;;;1.30;;
79403;SDS011;68858;48.642;9.142;2023-11-21T12:35:26;1.17;;;0.90;;
79403;SDS011;68858;48.642;9.142;2023-11-21T12:37:52;1.80;;;0.93;;
79403;SDS011;68858;48.642;9.142;2023-11-21T12:40:19;1.50;;;1.40;;
79403;SDS011;68858;48.642;9.142;2023-11-21T12:42:45;1.67;;;1.37;;
79403;SDS011;68858;48.642;9.142;2023-11-21T12:47:49;1.30;;;1.20;;
79403;SDS011;68858;48.642;9.142;2023-11-21T12:50:15;1.30;;;1.20;;
79403;SDS011;68858;48.642;9.142;2023-11-21T12:52:47;1.27;;;1.17;;
79403;SDS011;68858;48.642;9.142;2023-11-21T12:55:16;1.50;;;1.23;;
79403;SDS011;68858;48.642;9.142;2023-11-21T12:57:50;1.40;;;1.30;;
79403;SDS011;68858;48.642;9.142;2023-11-21T13:00:20;1.77;;;1.40;;
79403;SDS011;68858;48.642;9.142;2023-11-21T13:02:57;2.00;;;1.60;;
79403;SDS011;68858;48.642;9.142;2023-11-21T13:05:24;1.50;;;1.40;;
79403;SDS011;68858;48.642;9.142;2023-11-21T13:07:50;1.47;;;1.37;;
79403;SDS011;68858;48.642;9.142;2023-11-21T13:10:19;2.03;;;1.63;;
79403;SDS011;68858;48.642;9.142;2023-11-21T13:12:52;2.03;;;1.70;;
79403;SDS011;68858;48.642;9.142;2023-11-21T13:15:19;2.00;;;1.80;;
79403;SDS011;68858;48.642;9.142;2023-11-21T13:17:45;2.00;;;1.70;;
79403;SDS011;68858;48.642;9.142;2023-11-21T13:20:14;2.57;;;1.53;;
79403;SDS011;68858;48.642;9.142;2023-11-21T13:22:52;1.73;;;1.60;;
79403;SDS011;68858;48.642;9.142;2023-11-21T13:25:26;3.80;;;2.37;;
79403;SDS011;68858;48.642;9.142;2023-11-21T13:27:53;2.27;;;2.07;;
79403;SDS011;68858;48.642;9.142;2023-11-21T13:30:19;2.10;;;1.90;;
79403;SDS011;68858;48.642;9.142;2023-11-21T13:32:51;2.90;;;2.20;;
79403;SDS011;68858;48.642;9.142;2023-11-21T13:35:20;2.37;;;2.17;;
79403;SDS011;68858;48.642;9.142;2023-11-21T13:37:51;1.53;;;1.43;;
79403;SDS011;68858;48.642;9.142;2023-11-21T13:40:21;1.83;;;1.53;;
79403;SDS011;68858;48.642;9.142;2023-11-21T13:42:50;2.03;;;1.77;;
79403;SDS011;68858;48.642;9.142;2023-11-21T13:45:20;1.97;;;1.77;;
79403;SDS011;68858;48.642;9.142;2023-11-21T13:47:47;2.13;;;2.03;;
79403;SDS011;68858;48.642;9.142;2023-11-21T13:50:16;2.83;;;2.37;;
79403;SDS011;68858;48.642;9.142;2023-11-21T13:52:47;2.40;;;2.20;;
79403;SDS011;68858;48.642;9.142;2023-11-21T13:55:13;1.83;;;1.73;;
79403;SDS011;68858;48.642;9.142;2023-11-21T13:57:41;1.97;;;1.80;;
79403;SDS011;68858;48.642;9.142;2023-11-21T14:00:14;2.37;;;1.77;;
79403;SDS011;68858;48.642;9.142;2023-11-21T14:03:01;2.10;;;1.90;;
79403;SDS011;68858;48.642;9.142;2023-11-21T14:05:30;1.77;;;1.67;;
79403;SDS011;68858;48.642;9.142;2023-11-21T14:07:57;1.50;;;1.40;;
79403;SDS011;68858;48.642;9.142;2023-11-21T14:10:28;2.17;;;1.97;;
79403;SDS011;68858;48.642;9.142;2023-11-21T14:13:02;1.30;;;1.20;;
79403;SDS011;68858;48.642;9.142;2023-11-21T14:15:28;1.80;;;1.70;;
79403;SDS011;68858;48.642;9.142;2023-11-21T14:17:54;1.40;;;1.30;;
79403;SDS011;68858;48.642;9.142;2023-11-21T14:20:19;1.20;;;1.10;;
79403;SDS011;68858;48.642;9.142;2023-11-21T14:22:46;2.10;;;1.20;;
79403;SDS011;68858;48.642;9.142;2023-11-21T14:25:11;1.30;;;1.20;;
79403;SDS011;68858;48.642;9.142;2023-11-21T14:27:37;0.80;;;0.80;;
79403;SDS011;68858;48.642;9.142;2023-11-21T14:30:03;3.50;;;1.10;;
79403;SDS011;68858;48.642;9.142;2023-11-21T14:32:30;1.13;;;0.90;;
79403;SDS011;68858;48.642;9.142;2023-11-21T14:34:56;1.30;;;1.07;;
79403;SDS011;68858;48.642;9.142;2023-11-21T14:37:21;1.10;;;1.00;;
79403;SDS011;68858;48.642;9.142;2023-11-21T14:39:48;1.33;;;1.03;;
79403;SDS011;68858;48.642;9.142;2023-11-21T14:42:20;1.40;;;1.00;;
79403;SDS011;68858;48.642;9.142;2023-11-21T14:44:51;1.20;;;1.10;;
79403;SDS011;68858;48.642;9.142;2023-11-21T14:47:17;1.07;;;1.00;;
79403;SDS011;68858;48.642;9.142;2023-11-21T14:49:50;1.33;;;1.20;;
79403;SDS011;68858;48.642;9.142;2023-11-21T14:52:21;1.40;;;1.20;;
79403;SDS011;68858;48.642;9.142;2023-11-21T14:54:58;1.43;;;1.33;;
79403;SDS011;68858;48.642;9.142;2023-11-21T14:57:42;2.33;;;1.90;;
79403;SDS011;68858;48.642;9.142;2023-11-21T15:00:14;3.00;;;2.70;;
79403;SDS011;68858;48.642;9.142;2023-11-21T15:03:00;2.30;;;2.07;;
79403;SDS011;68858;48.642;9.142;2023-11-21T15:05:26;1.93;;;1.70;;
79403;SDS011;68858;48.642;9.142;2023-11-21T15:07:53;1.97;;;1.83;;
79403;SDS011;68858;48.642;9.142;2023-11-21T15:10:21;2.97;;;2.13;;
79403;SDS011;68858;48.642;9.142;2023-11-21T15:12:54;2.20;;;2.00;;